sensor_id;sensor_type;location;lat;lon;timestamp;pressure;altitude;pressure_sealevel;temperature;humidity
57056;BME280;42945;51.718;5.324;2023-01-16T00:02:01;99449.44;;;2.53;100.00
57056;BME280;42945;51.718;5.324;2023-01-16T00:04:27;99224.75;;;1.17;100.00
57056;BME280;42945;51.718;5.324;2023-01-16T00:06:52;99432.00;;;2.35;100.00
57056;BME280;42945;51.718;5.324;2023-01-16T00:09:18;99406.56;;;2.39;100.00
57056;BME280;42945;51.718;5.324;2023-01-16T00:11:43;99383.13;;;2.35;100.00
57056;BME280;42945;51.718;5.324;2023-01-16T00:14:09;99436.72;;;2.46;100.00
57056;BME280;42945;51.718;5.324;2023-01-16T00:16:35;99417.56;;;2.45;100.00
57056;BME280;42945;51.718;5.324;2023-01-16T00:19:01;99355.28;;;2.34;100.00
57056;BME280;42945;51.718;5.324;2023-01-16T00:21:27;99348.47;;;2.49;100.00
57056;BME280;42945;51.718;5.324;2023-01-16T00:24:01;99363.00;;;2.38;100.00
57056;BME280;42945;51.718;5.324;2023-01-16T00:26:29;99402.09;;;2.41;100.00
57056;BME280;42945;51.718;5.324;2023-01-16T00:28:55;99396.56;;;2.47;100.00
57056;BME280;42945;51.718;5.324;2023-01-16T00:31:20;99362.91;;;2.39;100.00
57056;BME280;42945;51.718;5.324;2023-01-16T00:33:48;99398.19;;;2.30;100.00
57056;BME280;42945;51.718;5.324;2023-01-16T00:36:13;99385.34;;;2.26;100.00
57056;BME280;42945;51.718;5.324;2023-01-16T00:38:39;99387.19;;;2.43;100.00
57056;BME280;42945;51.718;5.324;2023-01-16T00:41:06;99363.56;;;2.25;100.00
57056;BME280;42945;51.718;5.324;2023-01-16T00:43:32;99369.66;;;2.26;100.00
57056;BME280;42945;51.718;5.324;2023-01-16T00:45:57;99372.41;;;2.23;100.00
57056;BME280;42945;51.718;5.324;2023-01-16T00:48:23;99382.31;;;2.35;100.00
57056;BME280;42945;51.718;5.324;2023-01-16T00:50:49;99353.72;;;2.30;100.00
57056;BME280;42945;51.718;5.324;2023-01-16T00:53:15;99352.59;;;2.36;100.00
57056;BME280;42945;51.718;5.324;2023-01-16T00:55:40;99337.22;;;2.47;100.00
57056;BME280;42945;51.718;5.324;2023-01-16T00:58:08;99346.28;;;2.40;100.00
57056;BME280;42945;51.718;5.324;2023-01-16T01:00:34;99329.50;;;2.44;100.00
57056;BME280;42945;51.718;5.324;2023-01-16T01:03:00;99286.34;;;2.35;100.00
57056;BME280;42945;51.718;5.324;2023-01-16T01:05:25;99202.03;;;1.76;100.00
57056;BME280;42945;51.718;5.324;2023-01-16T01:07:50;99342.69;;;2.43;100.00
57056;BME280;42945;51.718;5.324;2023-01-16T01:10:16;99337.47;;;2.43;100.00
57056;BME280;42945;51.718;5.324;2023-01-16T01:12:41;99302.56;;;2.42;100.00
57056;BME280;42945;51.718;5.324;2023-01-16T01:15:07;99322.75;;;2.40;100.00
57056;BME280;42945;51.718;5.324;2023-01-16T01:17:33;99335.44;;;2.48;100.00
57056;BME280;42945;51.718;5.324;2023-01-16T01:19:59;99363.81;;;2.38;100.00
57056;BME280;42945;51.718;5.324;2023-01-16T01:22:24;99341.97;;;2.93;100.00
57056;BME280;42945;51.718;5.324;2023-01-16T01:24:51;99294.25;;;2.34;100.00
57056;BME280;42945;51.718;5.324;2023-01-16T01:27:16;99625.63;;;4.55;100.00
57056;BME280;42945;51.718;5.324;2023-01-16T01:29:42;99159.50;;;1.73;100.00
57056;BME280;42945;51.718;5.324;2023-01-16T01:32:07;99271.66;;;2.33;100.00
57056;BME280;42945;51.718;5.324;2023-01-16T01:34:33;99241.47;;;2.26;100.00
57056;BME280;42945;51.718;5.324;2023-01-16T01:37:03;99271.47;;;2.19;100.00
57056;BME280;42945;51.718;5.324;2023-01-16T01:39:30;99256.84;;;2.14;100.00
57056;BME280;42945;51.718;5.324;2023-01-16T01:41:56;99149.03;;;1.36;100.00
57056;BME280;42945;51.718;5.324;2023-01-16T01:47:15;99123.63;;;1.21;100.00
57056;BME280;42945;51.718;5.324;2023-01-16T01:49:43;99169.22;;;1.14;100.00
57056;BME280;42945;51.718;5.324;2023-01-16T01:52:09;99252.03;;;1.69;100.00
57056;BME280;42945;51.718;5.324;2023-01-16T01:54:39;99202.03;;;1.57;100.00
57056;BME280;42945;51.718;5.324;2023-01-16T01:57:10;99247.38;;;1.56;100.00
57056;BME280;42945;51.718;5.324;2023-01-16T01:59:40;99183.47;;;1.45;100.00
57056;BME280;42945;51.718;5.324;2023-01-16T02:02:10;99256.34;;;1.51;100.00
57056;BME280;42945;51.718;5.324;2023-01-16T02:04:40;99212.78;;;1.32;100.00
57056;BME280;42945;51.718;5.324;2023-01-16T02:07:09;99201.97;;;1.40;100.00
57056;BME280;42945;51.718;5.324;2023-01-16T02:09:35;99209.53;;;1.27;100.00
57056;BME280;42945;51.718;5.324;2023-01-16T02:12:08;99190.41;;;1.46;100.00
57056;BME280;42945;51.718;5.324;2023-01-16T02:14:39;99221.16;;;1.39;100.00
57056;BME280;42945;51.718;5.324;2023-01-16T02:17:13;99223.94;;;1.36;100.00
57056;BME280;42945;51.718;5.324;2023-01-16T02:20:15;99196.34;;;1.30;100.00
57056;BME280;42945;51.718;5.324;2023-01-16T02:31:48;99192.78;;;1.31;100.00
57056;BME280;42945;51.718;5.324;2023-01-16T02:34:44;99147.25;;;1.18;100.00
57056;BME280;42945;51.718;5.324;2023-01-16T02:37:31;99175.16;;;1.17;100.00
57056;BME280;42945;51.718;5.324;2023-01-16T02:40:43;99040.97;;;0.46;100.00
57056;BME280;42945;51.718;5.324;2023-01-16T02:43:29;99200.19;;;1.22;100.00
57056;BME280;42945;51.718;5.324;2023-01-16T02:46:29;99005.50;;;0.42;100.00
57056;BME280;42945;51.718;5.324;2023-01-16T02:54:56;99081.66;;;1.07;100.00
57056;BME280;42945;51.718;5.324;2023-01-16T02:57:29;99037.47;;;1.21;100.00
57056;BME280;42945;51.718;5.324;2023-01-16T02:59:56;99049.53;;;1.05;100.00
57056;BME280;42945;51.718;5.324;2023-01-16T03:02:22;98961.66;;;0.50;100.00
57056;BME280;42945;51.718;5.324;2023-01-16T03:04:51;99006.56;;;1.12;100.00
57056;BME280;42945;51.718;5.324;2023-01-16T03:07:29;99056.75;;;1.00;100.00
57056;BME280;42945;51.718;5.324;2023-01-16T03:10:18;99039.75;;;1.10;100.00
57056;BME280;42945;51.718;5.324;2023-01-16T03:13:03;99016.44;;;1.24;100.00
57056;BME280;42945;51.718;5.324;2023-01-16T03:16:01;99011.22;;;1.24;100.00
57056;BME280;42945;51.718;5.324;2023-01-16T03:24:00;99021.75;;;1.04;100.00
57056;BME280;42945;51.718;5.324;2023-01-16T03:26:36;99018.16;;;1.06;100.00
57056;BME280;42945;51.718;5.324;2023-01-16T03:34:42;98969.09;;;0.95;100.00
57056;BME280;42945;51.718;5.324;2023-01-16T03:37:24;98950.06;;;1.11;100.00
57056;BME280;42945;51.718;5.324;2023-01-16T03:39:57;98834.88;;;0.47;100.00
57056;BME280;42945;51.718;5.324;2023-01-16T03:45:01;98972.66;;;1.29;100.00
57056;BME280;42945;51.718;5.324;2023-01-16T03:47:36;98978.03;;;1.26;100.00
57056;BME280;42945;51.718;5.324;2023-01-16T03:50:05;98943.16;;;1.27;100.00
57056;BME280;42945;51.718;5.324;2023-01-16T03:52:36;98887.41;;;1.28;100.00
57056;BME280;42945;51.718;5.324;2023-01-16T03:55:21;99149.16;;;1.89;100.00
57056;BME280;42945;51.718;5.324;2023-01-16T03:58:03;98933.00;;;1.21;100.00
57056;BME280;42945;51.718;5.324;2023-01-16T04:00:37;98903.34;;;1.22;100.00
57056;BME280;42945;51.718;5.324;2023-01-16T04:03:17;98871.03;;;1.25;100.00
57056;BME280;42945;51.718;5.324;2023-01-16T04:05:53;98882.94;;;1.30;100.00
57056;BME280;42945;51.718;5.324;2023-01-16T04:08:27;98805.56;;;0.94;100.00
57056;BME280;42945;51.718;5.324;2023-01-16T04:10:54;98864.34;;;1.36;100.00
57056;BME280;42945;51.718;5.324;2023-01-16T04:13:28;98850.53;;;1.34;100.00
57056;BME280;42945;51.718;5.324;2023-01-16T04:15:58;98850.97;;;1.25;100.00
57056;BME280;42945;51.718;5.324;2023-01-16T04:18:31;98885.69;;;1.27;100.00
57056;BME280;42945;51.718;5.324;2023-01-16T04:20:58;98825.56;;;1.29;100.00
57056;BME280;42945;51.718;5.324;2023-01-16T04:23:24;98845.84;;;1.24;100.00
57056;BME280;42945;51.718;5.324;2023-01-16T04:25:49;98859.44;;;1.30;100.00
57056;BME280;42945;51.718;5.324;2023-01-16T04:28:15;98678.50;;;0.62;100.00
57056;BME280;42945;51.718;5.324;2023-01-16T04:30:40;98676.66;;;0.64;100.00
57056;BME280;42945;51.718;5.324;2023-01-16T04:33:06;98802.13;;;1.27;100.00
57056;BME280;42945;51.718;5.324;2023-01-16T04:35:32;98783.88;;;1.10;100.00
57056;BME280;42945;51.718;5.324;2023-01-16T04:37:58;98814.50;;;1.24;100.00
57056;BME280;42945;51.718;5.324;2023-01-16T04:40:23;98792.91;;;1.20;100.00
57056;BME280;42945;51.718;5.324;2023-01-16T04:42:49;98711.63;;;1.10;100.00
57056;BME280;42945;51.718;5.324;2023-01-16T04:45:14;98677.53;;;0.64;100.00
57056;BME280;42945;51.718;5.324;2023-01-16T04:47:40;98767.44;;;1.25;100.00
57056;BME280;42945;51.718;5.324;2023-01-16T04:50:06;98627.34;;;0.59;100.00
57056;BME280;42945;51.718;5.324;2023-01-16T04:52:31;98727.09;;;1.31;100.00
57056;BME280;42945;51.718;5.324;2023-01-16T04:54:57;98718.00;;;1.38;100.00
57056;BME280;42945;51.718;5.324;2023-01-16T04:57:22;98709.50;;;1.34;100.00
57056;BME280;42945;51.718;5.324;2023-01-16T04:59:47;98709.00;;;1.44;100.00
57056;BME280;42945;51.718;5.324;2023-01-16T05:02:13;98681.94;;;1.45;100.00
57056;BME280;42945;51.718;5.324;2023-01-16T05:04:38;98631.28;;;0.84;100.00
57056;BME280;42945;51.718;5.324;2023-01-16T05:07:04;98722.00;;;1.61;100.00
57056;BME280;42945;51.718;5.324;2023-01-16T05:09:29;98582.34;;;0.87;100.00
57056;BME280;42945;51.718;5.324;2023-01-16T05:11:54;98661.78;;;1.63;100.00
57056;BME280;42945;51.718;5.324;2023-01-16T05:14:20;98684.31;;;1.65;100.00
57056;BME280;42945;51.718;5.324;2023-01-16T05:16:45;98665.41;;;1.76;100.00
57056;BME280;42945;51.718;5.324;2023-01-16T05:19:11;98655.38;;;1.68;100.00
57056;BME280;42945;51.718;5.324;2023-01-16T05:21:36;98510.19;;;1.18;100.00
57056;BME280;42945;51.718;5.324;2023-01-16T05:24:02;98588.78;;;1.75;100.00
57056;BME280;42945;51.718;5.324;2023-01-16T05:26:28;98601.41;;;1.83;100.00
57056;BME280;42945;51.718;5.324;2023-01-16T05:28:53;98600.69;;;1.95;100.00
57056;BME280;42945;51.718;5.324;2023-01-16T05:31:18;98714.88;;;2.55;100.00
57056;BME280;42945;51.718;5.324;2023-01-16T05:33:44;98582.59;;;2.07;100.00
57056;BME280;42945;51.718;5.324;2023-01-16T05:36:11;98532.00;;;2.08;100.00
57056;BME280;42945;51.718;5.324;2023-01-16T05:38:36;98568.16;;;2.15;100.00
57056;BME280;42945;51.718;5.324;2023-01-16T05:41:01;98438.13;;;1.46;100.00
57056;BME280;42945;51.718;5.324;2023-01-16T05:43:27;98555.06;;;2.15;100.00
57056;BME280;42945;51.718;5.324;2023-01-16T05:45:52;98513.59;;;2.09;100.00
57056;BME280;42945;51.718;5.324;2023-01-16T05:48:18;98494.06;;;2.15;100.00
57056;BME280;42945;51.718;5.324;2023-01-16T05:50:44;98535.38;;;2.24;100.00
57056;BME280;42945;51.718;5.324;2023-01-16T05:53:11;98528.25;;;2.26;100.00
57056;BME280;42945;51.718;5.324;2023-01-16T05:55:46;98463.34;;;1.90;100.00
57056;BME280;42945;51.718;5.324;2023-01-16T05:58:16;98378.97;;;1.73;100.00
57056;BME280;42945;51.718;5.324;2023-01-16T06:00:41;98482.53;;;2.19;100.00
57056;BME280;42945;51.718;5.324;2023-01-16T06:03:07;98455.69;;;2.30;100.00
57056;BME280;42945;51.718;5.324;2023-01-16T06:05:34;98413.97;;;2.00;100.00
57056;BME280;42945;51.718;5.324;2023-01-16T06:08:00;98473.97;;;2.44;100.00
57056;BME280;42945;51.718;5.324;2023-01-16T06:10:25;98454.66;;;2.32;100.00
57056;BME280;42945;51.718;5.324;2023-01-16T06:12:51;98488.94;;;2.28;100.00
57056;BME280;42945;51.718;5.324;2023-01-16T06:15:17;98435.06;;;2.25;100.00
57056;BME280;42945;51.718;5.324;2023-01-16T06:17:42;98457.28;;;2.32;100.00
57056;BME280;42945;51.718;5.324;2023-01-16T06:20:09;98430.31;;;2.17;100.00
57056;BME280;42945;51.718;5.324;2023-01-16T06:22:35;98485.69;;;2.24;100.00
57056;BME280;42945;51.718;5.324;2023-01-16T06:25:00;98472.34;;;2.29;100.00
57056;BME280;42945;51.718;5.324;2023-01-16T06:27:25;98446.06;;;2.30;100.00
57056;BME280;42945;51.718;5.324;2023-01-16T06:29:51;98432.72;;;2.21;100.00
57056;BME280;42945;51.718;5.324;2023-01-16T06:32:16;98412.53;;;2.23;100.00
57056;BME280;42945;51.718;5.324;2023-01-16T06:34:44;98411.63;;;2.24;100.00
57056;BME280;42945;51.718;5.324;2023-01-16T06:37:11;98419.00;;;2.31;100.00
57056;BME280;42945;51.718;5.324;2023-01-16T06:39:37;98398.38;;;2.12;100.00
57056;BME280;42945;51.718;5.324;2023-01-16T06:42:02;98423.22;;;2.20;100.00
57056;BME280;42945;51.718;5.324;2023-01-16T06:44:30;98377.28;;;2.15;100.00
57056;BME280;42945;51.718;5.324;2023-01-16T06:46:55;98373.44;;;2.21;100.00
57056;BME280;42945;51.718;5.324;2023-01-16T06:49:21;98429.16;;;2.36;100.00
57056;BME280;42945;51.718;5.324;2023-01-16T06:51:46;98345.19;;;2.26;100.00
57056;BME280;42945;51.718;5.324;2023-01-16T06:54:11;98045.53;;;2.36;100.00
57056;BME280;42945;51.718;5.324;2023-01-16T06:56:38;98353.59;;;2.31;100.00
57056;BME280;42945;51.718;5.324;2023-01-16T06:59:03;97981.69;;;2.26;100.00
57056;BME280;42945;51.718;5.324;2023-01-16T07:01:29;98337.16;;;2.29;100.00
57056;BME280;42945;51.718;5.324;2023-01-16T07:03:54;98329.59;;;2.25;100.00
57056;BME280;42945;51.718;5.324;2023-01-16T07:06:20;98304.41;;;2.24;100.00
57056;BME280;42945;51.718;5.324;2023-01-16T07:08:45;98332.94;;;2.27;100.00
57056;BME280;42945;51.718;5.324;2023-01-16T07:11:14;98150.84;;;1.58;100.00
57056;BME280;42945;51.718;5.324;2023-01-16T07:13:39;98248.09;;;2.18;100.00
57056;BME280;42945;51.718;5.324;2023-01-16T07:16:05;98274.00;;;2.35;100.00
57056;BME280;42945;51.718;5.324;2023-01-16T07:18:49;98229.47;;;2.23;100.00
57056;BME280;42945;51.718;5.324;2023-01-16T07:21:33;98228.09;;;2.17;100.00
57056;BME280;42945;51.718;5.324;2023-01-16T07:24:21;98242.78;;;2.20;100.00
57056;BME280;42945;51.718;5.324;2023-01-16T07:26:52;98223.34;;;2.24;100.00
57056;BME280;42945;51.718;5.324;2023-01-16T07:29:23;98224.81;;;2.28;100.00
57056;BME280;42945;51.718;5.324;2023-01-16T07:31:48;98182.03;;;2.29;100.00
57056;BME280;42945;51.718;5.324;2023-01-16T07:34:13;98235.84;;;2.19;100.00
57056;BME280;42945;51.718;5.324;2023-01-16T07:36:39;98208.78;;;2.32;100.00
57056;BME280;42945;51.718;5.324;2023-01-16T07:39:04;98185.03;;;2.23;100.00
57056;BME280;42945;51.718;5.324;2023-01-16T07:41:29;98173.09;;;2.19;100.00
57056;BME280;42945;51.718;5.324;2023-01-16T07:43:56;98147.00;;;2.31;100.00
57056;BME280;42945;51.718;5.324;2023-01-16T07:46:21;98059.66;;;1.55;100.00
57056;BME280;42945;51.718;5.324;2023-01-16T07:48:46;98200.03;;;2.33;100.00
57056;BME280;42945;51.718;5.324;2023-01-16T07:51:11;98177.03;;;2.39;100.00
57056;BME280;42945;51.718;5.324;2023-01-16T07:53:37;98145.41;;;2.42;100.00
57056;BME280;42945;51.718;5.324;2023-01-16T07:56:03;97806.66;;;2.36;100.00
57056;BME280;42945;51.718;5.324;2023-01-16T07:58:29;98118.75;;;2.36;100.00
57056;BME280;42945;51.718;5.324;2023-01-16T08:00:56;98155.97;;;2.40;100.00
57056;BME280;42945;51.718;5.324;2023-01-16T08:03:22;98154.19;;;2.28;100.00
57056;BME280;42945;51.718;5.324;2023-01-16T08:05:48;97987.88;;;1.74;100.00
57056;BME280;42945;51.718;5.324;2023-01-16T08:08:15;98085.06;;;2.45;100.00
57056;BME280;42945;51.718;5.324;2023-01-16T08:10:43;98108.06;;;2.40;100.00
57056;BME280;42945;51.718;5.324;2023-01-16T08:13:08;97993.41;;;1.82;100.00
57056;BME280;42945;51.718;5.324;2023-01-16T08:15:34;97913.50;;;1.14;100.00
57056;BME280;42945;51.718;5.324;2023-01-16T08:17:59;97996.88;;;1.70;100.00
57056;BME280;42945;51.718;5.324;2023-01-16T08:20:24;98103.88;;;2.50;100.00
57056;BME280;42945;51.718;5.324;2023-01-16T08:22:52;98067.88;;;2.53;100.00
57056;BME280;42945;51.718;5.324;2023-01-16T08:25:20;98059.44;;;2.37;100.00
57056;BME280;42945;51.718;5.324;2023-01-16T08:27:46;98081.69;;;2.55;100.00
57056;BME280;42945;51.718;5.324;2023-01-16T08:30:13;98062.69;;;2.41;100.00
57056;BME280;42945;51.718;5.324;2023-01-16T08:32:38;98067.03;;;2.40;100.00
57056;BME280;42945;51.718;5.324;2023-01-16T08:35:04;97837.53;;;1.18;100.00
57056;BME280;42945;51.718;5.324;2023-01-16T08:37:31;98046.13;;;2.40;100.00
57056;BME280;42945;51.718;5.324;2023-01-16T08:39:56;98034.81;;;2.52;100.00
57056;BME280;42945;51.718;5.324;2023-01-16T08:42:22;98032.94;;;2.54;100.00
57056;BME280;42945;51.718;5.324;2023-01-16T08:45:09;97979.38;;;2.47;100.00
57056;BME280;42945;51.718;5.324;2023-01-16T08:47:53;97931.31;;;1.86;100.00
57056;BME280;42945;51.718;5.324;2023-01-16T08:50:37;98006.78;;;2.42;100.00
57056;BME280;42945;51.718;5.324;2023-01-16T08:53:21;97971.00;;;2.42;100.00
57056;BME280;42945;51.718;5.324;2023-01-16T08:55:46;98021.41;;;2.57;100.00
57056;BME280;42945;51.718;5.324;2023-01-16T08:58:12;98053.97;;;2.66;100.00
57056;BME280;42945;51.718;5.324;2023-01-16T09:00:37;97979.66;;;2.55;100.00
57056;BME280;42945;51.718;5.324;2023-01-16T09:03:03;97983.19;;;2.67;100.00
57056;BME280;42945;51.718;5.324;2023-01-16T09:05:28;97881.78;;;1.97;100.00
57056;BME280;42945;51.718;5.324;2023-01-16T09:07:54;97953.81;;;2.64;100.00
57056;BME280;42945;51.718;5.324;2023-01-16T09:10:20;97983.63;;;2.61;100.00
57056;BME280;42945;51.718;5.324;2023-01-16T09:12:45;97918.91;;;2.39;100.00
57056;BME280;42945;51.718;5.324;2023-01-16T09:15:29;97962.13;;;2.69;100.00
57056;BME280;42945;51.718;5.324;2023-01-16T09:17:55;97998.13;;;2.78;100.00
57056;BME280;42945;51.718;5.324;2023-01-16T09:20:20;97851.59;;;2.17;100.00
57056;BME280;42945;51.718;5.324;2023-01-16T09:22:45;97966.72;;;2.78;100.00
57056;BME280;42945;51.718;5.324;2023-01-16T09:25:11;97948.84;;;2.72;100.00
57056;BME280;42945;51.718;5.324;2023-01-16T09:27:36;97963.56;;;2.86;100.00
57056;BME280;42945;51.718;5.324;2023-01-16T09:30:03;97951.13;;;2.76;100.00
57056;BME280;42945;51.718;5.324;2023-01-16T09:32:28;97933.88;;;2.74;100.00
57056;BME280;42945;51.718;5.324;2023-01-16T09:34:54;97957.91;;;2.79;100.00
57056;BME280;42945;51.718;5.324;2023-01-16T09:37:19;97957.44;;;2.74;100.00
57056;BME280;42945;51.718;5.324;2023-01-16T09:39:44;97979.97;;;2.64;100.00
57056;BME280;42945;51.718;5.324;2023-01-16T09:45:27;97950.84;;;2.68;100.00
57056;BME280;42945;51.718;5.324;2023-01-16T09:48:09;97939.56;;;2.68;100.00
57056;BME280;42945;51.718;5.324;2023-01-16T09:50:46;97936.69;;;2.71;100.00
57056;BME280;42945;51.718;5.324;2023-01-16T09:53:20;97908.88;;;2.70;100.00
57056;BME280;42945;51.718;5.324;2023-01-16T09:56:09;97935.16;;;2.68;100.00
57056;BME280;42945;51.718;5.324;2023-01-16T09:59:02;97917.00;;;2.78;100.00
57056;BME280;42945;51.718;5.324;2023-01-16T10:01:36;97943.00;;;2.92;100.00
57056;BME280;42945;51.718;5.324;2023-01-16T10:04:19;97930.91;;;2.79;100.00
57056;BME280;42945;51.718;5.324;2023-01-16T10:06:58;97928.41;;;2.77;100.00
57056;BME280;42945;51.718;5.324;2023-01-16T10:12:11;97911.22;;;2.86;100.00
57056;BME280;42945;51.718;5.324;2023-01-16T10:14:52;97812.78;;;2.24;100.00
57056;BME280;42945;51.718;5.324;2023-01-16T10:20:34;97863.56;;;3.05;100.00
57056;BME280;42945;51.718;5.324;2023-01-16T10:23:26;97884.84;;;3.00;100.00
57056;BME280;42945;51.718;5.324;2023-01-16T10:26:00;97879.75;;;2.99;100.00
57056;BME280;42945;51.718;5.324;2023-01-16T10:31:12;97856.69;;;3.15;100.00
57056;BME280;42945;51.718;5.324;2023-01-16T10:33:52;97863.59;;;3.27;100.00
57056;BME280;42945;51.718;5.324;2023-01-16T10:36:25;97870.81;;;3.59;100.00
57056;BME280;42945;51.718;5.324;2023-01-16T10:38:55;97869.50;;;3.87;100.00
57056;BME280;42945;51.718;5.324;2023-01-16T10:41:26;97842.56;;;4.08;100.00
57056;BME280;42945;51.718;5.324;2023-01-16T10:47:25;97843.19;;;4.55;100.00
57056;BME280;42945;51.718;5.324;2023-01-16T10:50:11;97818.31;;;4.70;100.00
57056;BME280;42945;51.718;5.324;2023-01-16T10:52:37;97826.31;;;4.69;100.00
57056;BME280;42945;51.718;5.324;2023-01-16T10:55:04;97864.59;;;4.83;100.00
57056;BME280;42945;51.718;5.324;2023-01-16T10:57:30;97806.94;;;4.49;100.00
57056;BME280;42945;51.718;5.324;2023-01-16T11:00:05;97803.13;;;4.74;100.00
57056;BME280;42945;51.718;5.324;2023-01-16T11:02:34;97792.72;;;4.51;100.00
57056;BME280;42945;51.718;5.324;2023-01-16T11:05:24;97667.38;;;4.02;100.00
57056;BME280;42945;51.718;5.324;2023-01-16T11:08:11;97818.25;;;4.49;100.00
57056;BME280;42945;51.718;5.324;2023-01-16T11:10:39;97747.84;;;4.33;100.00
57056;BME280;42945;51.718;5.324;2023-01-16T11:13:13;97744.28;;;4.34;100.00
57056;BME280;42945;51.718;5.324;2023-01-16T11:16:05;97851.44;;;4.83;100.00
57056;BME280;42945;51.718;5.324;2023-01-16T11:18:50;97759.06;;;4.24;100.00
57056;BME280;42945;51.718;5.324;2023-01-16T11:21:23;97673.91;;;3.64;100.00
57056;BME280;42945;51.718;5.324;2023-01-16T11:23:58;97761.50;;;4.05;100.00
57056;BME280;42945;51.718;5.324;2023-01-16T11:26:24;97640.97;;;3.39;100.00
57056;BME280;42945;51.718;5.324;2023-01-16T11:28:50;97663.28;;;3.77;100.00
57056;BME280;42945;51.718;5.324;2023-01-16T11:31:21;97654.38;;;3.57;100.00
57056;BME280;42945;51.718;5.324;2023-01-16T11:33:53;97690.78;;;4.14;100.00
57056;BME280;42945;51.718;5.324;2023-01-16T11:36:24;97749.03;;;4.29;100.00
57056;BME280;42945;51.718;5.324;2023-01-16T11:38:51;97707.53;;;4.34;100.00
57056;BME280;42945;51.718;5.324;2023-01-16T11:41:23;97723.09;;;4.47;100.00
57056;BME280;42945;51.718;5.324;2023-01-16T11:46:57;97577.75;;;3.75;100.00
57056;BME280;42945;51.718;5.324;2023-01-16T11:49:27;97692.75;;;4.54;100.00
57056;BME280;42945;51.718;5.324;2023-01-16T11:51:53;97582.00;;;3.88;100.00
57056;BME280;42945;51.718;5.324;2023-01-16T11:54:24;97675.09;;;4.57;100.00
57056;BME280;42945;51.718;5.324;2023-01-16T11:57:26;97707.09;;;4.50;100.00
57056;BME280;42945;51.718;5.324;2023-01-16T12:03:07;97648.38;;;4.51;100.00
57056;BME280;42945;51.718;5.324;2023-01-16T12:11:13;97630.81;;;4.42;100.00
57056;BME280;42945;51.718;5.324;2023-01-16T12:13:57;97638.53;;;4.44;100.00
57056;BME280;42945;51.718;5.324;2023-01-16T12:22:26;97532.53;;;4.04;100.00
57056;BME280;42945;51.718;5.324;2023-01-16T12:33:29;97586.69;;;4.36;100.00
57056;BME280;42945;51.718;5.324;2023-01-16T12:36:07;97585.22;;;4.43;100.00
57056;BME280;42945;51.718;5.324;2023-01-16T12:38:39;97605.41;;;4.43;100.00
57056;BME280;42945;51.718;5.324;2023-01-16T12:41:19;97623.66;;;4.44;100.00
57056;BME280;42945;51.718;5.324;2023-01-16T12:47:27;97532.47;;;4.37;100.00
57056;BME280;42945;51.718;5.324;2023-01-16T12:58:19;97549.91;;;4.47;100.00
57056;BME280;42945;51.718;5.324;2023-01-16T13:03:54;97443.69;;;3.80;100.00
57056;BME280;42945;51.718;5.324;2023-01-16T13:06:34;97582.09;;;4.28;100.00
57056;BME280;42945;51.718;5.324;2023-01-16T13:09:03;97589.25;;;4.47;100.00
57056;BME280;42945;51.718;5.324;2023-01-16T13:11:46;97551.91;;;4.34;100.00
57056;BME280;42945;51.718;5.324;2023-01-16T13:14:46;97524.63;;;4.46;100.00
57056;BME280;42945;51.718;5.324;2023-01-16T13:17:25;97561.09;;;4.49;100.00
57056;BME280;42945;51.718;5.324;2023-01-16T13:19:53;97557.28;;;4.32;100.00
57056;BME280;42945;51.718;5.324;2023-01-16T13:24:59;97518.78;;;4.33;100.00
57056;BME280;42945;51.718;5.324;2023-01-16T13:27:37;97529.59;;;4.19;100.00
57056;BME280;42945;51.718;5.324;2023-01-16T13:30:09;97581.50;;;4.46;100.00
57056;BME280;42945;51.718;5.324;2023-01-16T13:35:42;97524.75;;;4.45;100.00
57056;BME280;42945;51.718;5.324;2023-01-16T13:46:34;97453.28;;;4.22;100.00
57056;BME280;42945;51.718;5.324;2023-01-16T13:49:02;97408.03;;;3.99;100.00
57056;BME280;42945;51.718;5.324;2023-01-16T13:51:28;97436.34;;;4.05;100.00
57056;BME280;42945;51.718;5.324;2023-01-16T13:54:01;97304.41;;;3.33;100.00
57056;BME280;42945;51.718;5.324;2023-01-16T13:56:31;97387.38;;;4.05;100.00
57056;BME280;42945;51.718;5.324;2023-01-16T13:59:27;97472.56;;;4.51;100.00
57056;BME280;42945;51.718;5.324;2023-01-16T14:01:55;97403.97;;;3.85;100.00
57056;BME280;42945;51.718;5.324;2023-01-16T14:10:17;97514.66;;;4.40;100.00
57056;BME280;42945;51.718;5.324;2023-01-16T14:15:51;97494.59;;;4.29;100.00
57056;BME280;42945;51.718;5.324;2023-01-16T14:18:41;97415.88;;;3.68;100.00
57056;BME280;42945;51.718;5.324;2023-01-16T14:23:56;97516.69;;;4.27;100.00
57056;BME280;42945;51.718;5.324;2023-01-16T14:35:01;97408.94;;;3.57;100.00
57056;BME280;42945;51.718;5.324;2023-01-16T14:37:31;97522.44;;;4.21;100.00
57056;BME280;42945;51.718;5.324;2023-01-16T14:42:45;97458.00;;;4.28;100.00
57056;BME280;42945;51.718;5.324;2023-01-16T14:45:31;97553.34;;;4.17;100.00
57056;BME280;42945;51.718;5.324;2023-01-16T14:56:52;97470.56;;;3.72;100.00
57056;BME280;42945;51.718;5.324;2023-01-16T14:59:24;97528.22;;;3.72;100.00
57056;BME280;42945;51.718;5.324;2023-01-16T15:02:08;97566.56;;;3.73;100.00
57056;BME280;42945;51.718;5.324;2023-01-16T15:04:51;97471.53;;;3.18;100.00
57056;BME280;42945;51.718;5.324;2023-01-16T15:07:23;97326.72;;;2.21;100.00
57056;BME280;42945;51.718;5.324;2023-01-16T15:09:49;97527.59;;;3.48;100.00
57056;BME280;42945;51.718;5.324;2023-01-16T15:12:17;97529.13;;;3.50;100.00
57056;BME280;42945;51.718;5.324;2023-01-16T15:14:57;97524.28;;;3.46;100.00
57056;BME280;42945;51.718;5.324;2023-01-16T15:17:33;97544.72;;;3.52;100.00
57056;BME280;42945;51.718;5.324;2023-01-16T15:20:25;97305.69;;;2.22;100.00
57056;BME280;42945;51.718;5.324;2023-01-16T15:28:33;97513.75;;;3.25;100.00
57056;BME280;42945;51.718;5.324;2023-01-16T15:31:06;97363.97;;;2.02;100.00
57056;BME280;42945;51.718;5.324;2023-01-16T15:33:34;97515.88;;;3.31;100.00
57056;BME280;42945;51.718;5.324;2023-01-16T15:36:23;97563.88;;;3.20;100.00
57056;BME280;42945;51.718;5.324;2023-01-16T15:38:53;97553.72;;;3.38;100.00